createdAt,value
2022-07-26T11:26:19.317Z,100419.16
2022-07-26T11:31:23.884Z,100434.72
2022-07-26T11:36:46.492Z,100429.69
2022-07-26T11:41:48.729Z,100420.91
2022-07-26T11:46:51.149Z,100423.91
2022-07-26T11:52:00.724Z,100422.88
2022-07-26T11:57:04.823Z,100420.66
2022-07-26T12:02:08.637Z,100419.06
2022-07-26T12:07:18.194Z,100416.56
2022-07-26T12:12:28.132Z,100411.75
2022-07-26T12:17:35.220Z,100413.78
2022-07-26T12:22:37.108Z,100419.78
2022-07-26T12:27:46.471Z,100400.00
2022-07-26T12:32:48.735Z,100394.28
2022-07-26T12:37:51.685Z,100395.78
2022-07-26T12:43:01.275Z,100398.31
2022-07-26T12:48:08.642Z,100383.47
2022-07-26T12:53:11.417Z,100388.22
2022-07-26T12:58:14.524Z,100391.41
2022-07-26T13:03:16.043Z,100394.06
2022-07-26T13:08:24.205Z,100394.78
2022-07-26T13:13:25.715Z,100400.88
2022-07-26T13:18:27.156Z,100393.47
2022-07-26T13:23:28.635Z,100398.09
2022-07-26T13:28:31.133Z,100397.88
2022-07-26T13:33:33.307Z,100401.47
2022-07-26T13:38:35.071Z,100414.41
2022-07-26T13:43:36.643Z,100408.72
2022-07-26T13:48:44.073Z,100403.88
2022-07-26T13:53:59.695Z,100410.66
2022-07-26T13:59:01.214Z,100407.63
2022-07-26T14:04:04.383Z,100407.91
2022-07-26T14:09:10.797Z,100402.84
2022-07-26T14:14:13.473Z,100410.66
2022-07-26T14:19:15.562Z,100395.31
2022-07-26T14:24:18.969Z,100398.69
2022-07-26T14:29:22.462Z,100400.25
2022-07-26T14:34:24.021Z,100399.34
2022-07-26T14:39:25.731Z,100388.50
2022-07-26T14:44:27.489Z,100387.34
2022-07-26T14:49:28.965Z,100379.88
2022-07-26T14:54:30.531Z,100387.09
2022-07-26T14:59:32.032Z,100383.00
2022-07-26T15:04:33.574Z,100383.59
2022-07-26T15:09:35.105Z,100403.84
2022-07-26T15:14:36.593Z,100411.84
2022-07-26T15:19:38.075Z,100412.59
2022-07-26T15:24:40.206Z,100395.13
2022-07-26T15:29:42.136Z,100397.19
2022-07-26T15:34:43.564Z,100391.63
2022-07-26T15:39:45.065Z,100398.13
2022-07-26T15:44:46.524Z,100396.28
2022-07-26T15:49:48.092Z,100389.44
2022-07-26T15:54:49.768Z,100392.31
2022-07-26T15:59:51.265Z,100402.28
2022-07-26T16:04:52.761Z,100399.22
2022-07-26T16:09:54.213Z,100399.16
2022-07-26T16:14:55.671Z,100396.28
2022-07-26T16:19:57.136Z,100392.75
2022-07-26T16:24:58.618Z,100389.16
2022-07-26T16:30:00.039Z,100391.25
2022-07-26T16:35:01.617Z,100394.63
2022-07-26T16:40:04.752Z,100400.34
2022-07-26T16:45:06.942Z,100390.44
2022-07-26T16:50:08.833Z,100383.13
2022-07-26T16:55:10.365Z,100390.91
2022-07-26T17:00:13.429Z,100385.78
2022-07-26T17:05:15.334Z,100384.75
2022-07-26T17:10:16.818Z,100384.34
2022-07-26T17:15:18.392Z,100390.91
2022-07-26T17:20:19.953Z,100391.50
2022-07-26T17:25:21.512Z,100390.22
2022-07-26T17:30:23.199Z,100391.59
2022-07-26T17:35:24.814Z,100392.31
2022-07-26T17:40:26.443Z,100384.53
2022-07-26T17:45:28.507Z,100380.50
2022-07-26T17:50:38.391Z,100384.88
2022-07-26T17:55:40.176Z,100394.03
2022-07-26T18:00:41.731Z,100405.28
2022-07-26T18:05:43.870Z,100410.94
2022-07-26T18:10:50.905Z,100422.22
2022-07-26T18:15:53.662Z,100421.44
2022-07-26T18:20:55.163Z,100419.41
2022-07-26T18:25:56.624Z,100421.31
2022-07-26T18:30:58.121Z,100423.59
2022-07-26T18:35:59.637Z,100432.28
2022-07-26T18:41:01.148Z,100434.34
2022-07-26T18:46:06.325Z,100443.91
2022-07-26T18:51:07.909Z,100436.84
2022-07-26T18:56:09.383Z,100428.75
2022-07-26T19:01:10.870Z,100428.78
2022-07-26T19:06:12.380Z,100435.22
2022-07-26T19:11:13.983Z,100442.25
2022-07-26T19:16:15.502Z,100447.66
2022-07-26T19:21:17.356Z,100458.03
2022-07-26T19:26:19.313Z,100460.91
2022-07-26T19:31:22.019Z,100470.66
2022-07-26T19:36:26.112Z,100472.06
2022-07-26T19:41:28.018Z,100488.66
2022-07-26T19:46:29.532Z,100497.91
2022-07-26T19:51:31.250Z,100500.56
2022-07-26T19:56:32.802Z,100512.63
2022-07-26T20:01:34.412Z,100511.38
2022-07-26T20:06:35.927Z,100526.84
2022-07-26T20:11:37.537Z,100533.53
2022-07-26T20:16:39.070Z,100540.31
2022-07-26T20:21:41.363Z,100543.81
2022-07-26T20:26:42.860Z,100567.66
2022-07-26T20:31:44.748Z,100551.56
2022-07-26T20:36:46.823Z,100552.19
2022-07-26T20:41:48.550Z,100554.88
2022-07-26T20:46:51.508Z,100555.44
2022-07-26T20:51:52.974Z,100548.38
2022-07-26T20:56:54.498Z,100547.47
2022-07-26T21:01:56.102Z,100557.03
2022-07-26T21:06:58.478Z,100558.59
2022-07-26T21:11:59.949Z,100562.94
2022-07-26T21:17:01.578Z,100565.59
2022-07-26T21:22:03.139Z,100564.44
2022-07-26T21:27:05.750Z,100570.50
2022-07-26T21:32:07.224Z,100569.69
2022-07-26T21:37:09.215Z,100567.81
2022-07-26T21:42:10.683Z,100566.94
2022-07-26T21:47:12.306Z,100562.66
2022-07-26T21:52:13.756Z,100566.69
2022-07-26T21:57:15.275Z,100570.78
2022-07-26T22:02:19.934Z,100572.66
2022-07-26T22:07:23.310Z,100575.91
2022-07-26T22:12:24.803Z,100581.56
2022-07-26T22:17:26.266Z,100573.28
2022-07-26T22:22:27.724Z,100581.84
2022-07-26T22:27:29.310Z,100586.25
2022-07-26T22:32:30.904Z,100592.16
2022-07-26T22:37:32.486Z,100582.56
2022-07-26T22:42:34.151Z,100580.94
2022-07-26T22:47:35.626Z,100580.78
2022-07-26T22:52:37.748Z,100581.91
2022-07-26T22:57:43.455Z,100580.31
2022-07-26T23:02:45.178Z,100584.50
2022-07-26T23:07:48.956Z,100580.41
2022-07-26T23:12:50.585Z,100592.44
2022-07-26T23:17:52.169Z,100588.41
2022-07-26T23:22:53.725Z,100587.34
2022-07-26T23:27:55.173Z,100586.34
2022-07-26T23:32:56.725Z,100593.03
2022-07-26T23:37:58.237Z,100593.38
2022-07-26T23:42:59.821Z,100593.31
2022-07-26T23:48:01.389Z,100597.28
2022-07-26T23:53:02.961Z,100595.53
2022-07-26T23:58:05.447Z,100589.25
